Country Terrace, Indiana
Current Conditions -  °F | °C
As of 1:53 AM on Thursday 27 Nov 2014 (Local Time) from KMIE Reporting Station
Overcast Overcast  
Wind Chill: 19°   Ceiling: 2500
Heat Index: 28°   Visibility: 9mi
Dew Point: 22°   Wind: 9mph
Humidity: 78%   Direction: 350°N
Pressure: 30.1"   Gusts: NA
Location:  40.2763°N, 85.3769°W
Report Text: KMIE 270653Z AUTO 35008KT 9SM OVC025 M02/M06 A3010 RMK AO2 SLP200 T10221056
Loading
Personal Weather Stations






























Interactive Weather Map New forecast layout! Learn more

10-Day Weather Forecast

Advertisements
Track Severe Weather on mobile